Time;durP1;ratioP1;P1;durP2;ratioP2;P2;SDS_P1;SDS_P2;PMS_P1;PMS_P2;Temp;Humidity;BMP_temperature;BMP_pressure;BME280_temperature;BME280_humidity;BME280_pressure;Samples;Min_cycle;Max_cycle;Signal;HPM_P1;HPM_P2
2021/08/04 00:02:23;;;;;;;1.15;1.05;;;;;;;17.00;66.23;96496.31;6214444;23;20021;-75
2021/08/04 00:04:51;;;;;;;2.88;1.40;;;;;;;16.92;66.63;96489.53;6214684;23;20495;-76
2021/08/04 00:07:18;;;;;;;1.60;1.48;;;;;;;16.87;67.00;96506.00;6215149;23;20024;-76
2021/08/04 00:09:46;;;;;;;2.17;1.35;;;;;;;16.87;67.27;96499.94;6215266;23;20357;-76
2021/08/04 00:12:14;;;;;;;1.63;1.40;;;;;;;16.87;67.35;96508.63;6214745;23;20025;-75
2021/08/04 00:14:42;;;;;;;1.20;1.05;;;;;;;16.86;67.57;96509.69;6215084;23;20021;-76
2021/08/04 00:17:10;;;;;;;2.10;1.65;;;;;;;16.88;67.41;96515.53;6215103;23;20016;-75
2021/08/04 00:19:38;;;;;;;2.83;1.48;;;;;;;16.91;67.51;96522.19;6215078;23;20024;-75
2021/08/04 00:22:05;;;;;;;1.00;1.00;;;;;;;16.96;67.22;96526.78;6214840;23;20491;-76
2021/08/04 00:24:33;;;;;;;1.40;1.25;;;;;;;16.99;65.93;96521.88;6214501;23;20035;-75
2021/08/04 00:27:00;;;;;;;2.83;1.17;;;;;;;17.00;65.38;96520.03;6214767;23;20079;-76
2021/08/04 00:29:28;;;;;;;1.30;1.20;;;;;;;17.00;66.19;96512.13;6214683;23;20027;-75
2021/08/04 00:31:57;;;;;;;1.38;1.20;;;;;;;17.03;65.37;96514.31;6214757;23;20031;-76
2021/08/04 00:34:24;;;;;;;2.08;1.05;;;;;;;17.01;65.34;96513.72;6214462;23;20024;-75
2021/08/04 00:36:52;;;;;;;1.63;0.95;;;;;;;16.99;65.19;96502.59;6214440;23;20483;-75
2021/08/04 00:39:19;;;;;;;0.98;0.88;;;;;;;17.01;65.45;96514.53;6214742;23;20024;-75
2021/08/04 00:41:47;;;;;;;0.95;0.95;;;;;;;17.01;64.86;96511.09;6214310;23;20473;-75
2021/08/04 00:44:14;;;;;;;1.65;1.15;;;;;;;16.97;64.80;96512.59;6214441;23;20031;-75
2021/08/04 00:46:43;;;;;;;1.65;1.30;;;;;;;16.92;65.41;96513.22;6214825;23;20027;-76
2021/08/04 00:49:14;;;;;;;0.85;0.85;;;;;;;16.87;65.67;96511.28;6220789;23;20020;-76
2021/08/04 00:51:41;;;;;;;1.38;1.27;;;;;;;16.85;66.08;96508.06;6221269;23;20025;-76
2021/08/04 00:54:09;;;;;;;3.00;1.30;;;;;;;16.87;66.47;96505.22;6220554;23;20176;-76
2021/08/04 00:56:37;;;;;;;1.25;1.15;;;;;;;16.89;66.44;96506.59;6218489;23;20480;-75
2021/08/04 00:59:06;;;;;;;2.17;1.10;;;;;;;16.92;65.71;96512.44;6214536;23;20031;-75
2021/08/04 01:01:40;;;;;;;0.82;0.82;;;;;;;16.94;66.28;96520.91;6214140;23;20024;-75
2021/08/04 01:04:15;;;;;;;1.40;1.13;;;;;;;16.95;65.70;96512.00;6214393;23;20094;-75
2021/08/04 01:06:49;;;;;;;1.33;1.23;;;;;;;16.93;66.22;96517.50;6214587;23;20024;-76
2021/08/04 01:09:19;;;;;;;1.00;0.80;;;;;;;16.92;66.06;96502.69;6214676;23;20028;-76
2021/08/04 01:11:51;;;;;;;2.15;1.13;;;;;;;16.93;66.22;96503.53;6214530;23;20043;-75
2021/08/04 01:14:23;;;;;;;2.70;1.35;;;;;;;16.91;66.34;96510.84;6224164;23;20031;-75
2021/08/04 01:16:52;;;;;;;1.13;1.05;;;;;;;16.91;66.65;96511.63;6230915;23;20023;-76
2021/08/04 01:19:42;;;;;;;3.55;1.10;;;;;;;16.94;66.37;96511.19;6237213;23;20103;-76
2021/08/04 01:22:20;;;;;;;1.27;0.98;;;;;;;16.99;66.32;96502.59;6218382;23;20025;-75
2021/08/04 01:24:54;;;;;;;0.82;0.82;;;;;;;17.04;65.93;96508.00;6215704;23;20020;-76
2021/08/04 01:27:24;;;;;;;2.28;1.17;;;;;;;17.06;65.90;96509.41;6215201;23;20025;-75
2021/08/04 01:29:54;;;;;;;1.45;0.98;;;;;;;17.07;65.65;96510.19;6215171;23;20028;-76
2021/08/04 01:32:22;;;;;;;1.10;1.00;;;;;;;17.09;65.50;96508.13;6214575;23;20027;-75
2021/08/04 01:34:52;;;;;;;1.10;1.00;;;;;;;17.09;65.25;96508.13;6214572;23;20028;-75
2021/08/04 01:37:22;;;;;;;0.77;0.77;;;;;;;17.05;65.60;96504.34;6214666;23;20438;-75
2021/08/04 01:39:51;;;;;;;3.22;1.13;;;;;;;17.03;65.79;96501.13;6215608;23;20023;-75
2021/08/04 01:42:20;;;;;;;3.00;1.55;;;;;;;17.00;65.83;96498.94;6216264;23;20017;-75
2021/08/04 01:44:50;;;;;;;0.93;0.93;;;;;;;16.92;66.00;96492.16;6216358;23;20024;-76
2021/08/04 01:47:19;;;;;;;1.38;0.85;;;;;;;16.86;66.28;96493.06;6215933;23;20530;-75
2021/08/04 01:49:47;;;;;;;1.75;1.30;;;;;;;16.78;66.71;96491.50;6216353;23;20029;-75
2021/08/04 01:52:15;;;;;;;2.00;1.63;;;;;;;16.73;67.23;96499.28;6215898;23;20028;-75
2021/08/04 01:54:43;;;;;;;1.25;1.13;;;;;;;16.70;67.34;96499.72;6216056;23;20029;-76
2021/08/04 01:57:10;;;;;;;1.23;1.13;;;;;;;16.69;67.41;96504.19;6216184;23;20089;-76
2021/08/04 01:59:39;;;;;;;1.70;1.10;;;;;;;16.64;67.20;96500.63;6215773;23;20025;-75
2021/08/04 02:02:19;;;;;;;1.67;1.30;;;;;;;16.59;67.62;96497.84;6215591;23;20016;-75
2021/08/04 02:04:47;;;;;;;2.90;1.00;;;;;;;16.55;67.53;96494.03;6215916;23;20350;-76
2021/08/04 02:07:27;;;;;;;1.20;0.88;;;;;;;16.52;67.37;96483.97;6217151;23;20024;-75
2021/08/04 02:09:59;;;;;;;0.95;0.95;;;;;;;16.46;68.16;96486.47;6217835;23;20024;-76
2021/08/04 02:12:26;;;;;;;1.73;1.17;;;;;;;16.40;68.07;96489.97;6217418;23;20027;-75
2021/08/04 02:14:59;;;;;;;1.40;1.00;;;;;;;16.38;68.12;96492.03;6217918;23;20029;-75
2021/08/04 02:17:35;;;;;;;1.23;0.90;;;;;;;16.41;67.80;96494.22;6217085;23;20016;-75
2021/08/04 02:20:07;;;;;;;1.20;0.90;;;;;;;16.41;67.26;96493.41;6216636;23;20024;-75
2021/08/04 02:22:42;;;;;;;2.03;1.02;;;;;;;16.40;67.04;96492.63;6215861;23;20368;-76
2021/08/04 02:25:14;;;;;;;1.42;0.82;;;;;;;16.41;67.68;96496.84;6216779;23;20104;-75
2021/08/04 02:27:43;;;;;;;2.13;0.85;;;;;;;16.38;66.96;96492.03;6216811;23;20100;-76
2021/08/04 02:30:15;;;;;;;1.52;0.93;;;;;;;16.38;67.30;96491.22;6216136;23;20024;-75
2021/08/04 02:32:45;;;;;;;1.83;1.02;;;;;;;16.39;67.29;96493.63;6215853;23;20029;-76
2021/08/04 02:35:14;;;;;;;2.08;1.10;;;;;;;16.40;66.32;96483.91;6216250;23;20024;-76
2021/08/04 02:37:42;;;;;;;1.20;1.10;;;;;;;16.42;66.75;96484.47;6215902;23;20028;-75
2021/08/04 02:40:10;;;;;;;1.33;1.00;;;;;;;16.46;66.21;96491.72;6215802;23;20020;-75
2021/08/04 02:42:40;;;;;;;1.13;1.02;;;;;;;16.41;65.89;96496.03;6215699;23;20027;-76
2021/08/04 02:45:09;;;;;;;2.40;1.10;;;;;;;16.32;66.81;96486.84;6216082;23;20017;-75
2021/08/04 02:47:37;;;;;;;2.75;1.40;;;;;;;16.25;67.19;96486.91;6216123;23;20020;-75
2021/08/04 02:50:08;;;;;;;1.00;0.80;;;;;;;16.18;67.79;96486.16;6215808;23;20017;-75
2021/08/04 02:52:36;;;;;;;1.48;1.10;;;;;;;16.13;67.66;96483.41;6215508;23;20021;-76
2021/08/04 02:55:05;;;;;;;1.20;1.10;;;;;;;16.06;67.62;96484.28;6215966;23;20111;-76
2021/08/04 02:57:33;;;;;;;1.52;1.02;;;;;;;16.03;67.77;96483.94;6215722;23;20480;-75
2021/08/04 03:00:00;;;;;;;2.40;1.10;;;;;;;15.99;68.16;96488.81;6215701;23;20031;-76
2021/08/04 03:02:28;;;;;;;2.15;1.25;;;;;;;15.94;68.24;96486.03;6215636;23;20021;-75
2021/08/04 03:04:56;;;;;;;1.80;1.20;;;;;;;15.95;68.51;96485.00;6215539;23;20033;-75
2021/08/04 03:07:24;;;;;;;1.25;1.10;;;;;;;15.98;68.46;96475.88;6215630;23;20027;-76
2021/08/04 03:09:52;;;;;;;1.52;1.23;;;;;;;16.01;68.25;96478.88;6215572;23;20027;-75
2021/08/04 03:12:19;;;;;;;0.90;0.85;;;;;;;16.04;67.91;96478.44;6215505;23;20021;-76
2021/08/04 03:14:47;;;;;;;1.90;1.30;;;;;;;16.09;67.87;96487.50;6215530;23;20031;-76
2021/08/04 03:17:14;;;;;;;2.72;0.95;;;;;;;16.06;67.21;96476.38;6215701;23;20024;-76
2021/08/04 03:19:42;;;;;;;1.25;1.15;;;;;;;16.05;67.63;96482.69;6215588;23;20020;-75
2021/08/04 03:22:10;;;;;;;1.45;1.33;;;;;;;16.02;67.55;96477.03;6215372;23;20024;-76
2021/08/04 03:24:39;;;;;;;3.40;1.38;;;;;;;16.02;67.55;96482.31;6215448;23;20021;-76
2021/08/04 03:27:06;;;;;;;1.65;1.48;;;;;;;15.99;67.58;96478.28;6215829;23;20039;-75
2021/08/04 03:29:34;;;;;;;2.15;1.27;;;;;;;16.01;68.54;96476.25;6215843;23;20356;-75
2021/08/04 03:32:02;;;;;;;1.33;0.98;;;;;;;16.04;68.22;96475.78;6215077;23;20524;-75
2021/08/04 03:34:30;;;;;;;1.80;1.27;;;;;;;16.04;68.29;96475.78;6215115;23;20025;-75
2021/08/04 03:36:57;;;;;;;1.80;1.02;;;;;;;16.01;68.42;96478.88;6215324;23;20028;-76
2021/08/04 03:39:25;;;;;;;1.42;1.27;;;;;;;15.99;68.57;96473.03;6215361;23;20028;-75
2021/08/04 03:41:54;;;;;;;3.78;1.50;;;;;;;15.94;68.88;96472.88;6214990;23;20532;-75
2021/08/04 03:44:21;;;;;;;2.60;1.15;;;;;;;15.94;69.43;96479.94;6215196;23;20021;-76
2021/08/04 03:46:49;;;;;;;1.48;1.25;;;;;;;15.96;69.17;96483.19;6214894;23;20016;-75
2021/08/04 03:49:17;;;;;;;1.33;1.23;;;;;;;15.96;69.23;96483.19;6214673;23;20013;-75
2021/08/04 03:51:44;;;;;;;1.80;1.50;;;;;;;15.94;69.30;96478.16;6214999;23;20024;-76
2021/08/04 03:54:12;;;;;;;1.70;1.40;;;;;;;15.96;69.94;96481.38;6214974;23;20027;-75
2021/08/04 03:56:39;;;;;;;1.80;1.60;;;;;;;16.03;69.59;96482.09;6215169;23;20021;-76
2021/08/04 03:59:08;;;;;;;2.38;1.25;;;;;;;16.07;69.16;96479.84;6215026;23;20067;-75
2021/08/04 04:01:36;;;;;;;1.63;1.10;;;;;;;16.09;69.64;96487.50;6214524;23;20028;-76
2021/08/04 04:04:04;;;;;;;1.95;1.58;;;;;;;16.09;68.86;96476.97;6213979;23;20067;-76
2021/08/04 04:06:31;;;;;;;3.75;1.38;;;;;;;16.06;69.11;96484.28;6215176;23;20020;-75
2021/08/04 04:08:59;;;;;;;1.33;1.17;;;;;;;16.06;69.03;96479.00;6215468;23;20027;-75
2021/08/04 04:11:27;;;;;;;11.93;1.63;;;;;;;16.08;69.15;96478.81;6215018;23;20104;-76
2021/08/04 04:13:54;;;;;;;1.67;1.30;;;;;;;16.09;68.87;96474.34;6214579;23;20017;-75
2021/08/04 04:16:23;;;;;;;1.55;1.13;;;;;;;16.06;69.34;96479.00;6215036;23;20024;-75
2021/08/04 04:18:51;;;;;;;1.40;1.20;;;;;;;16.01;69.18;96470.19;6215113;23;20017;-76
2021/08/04 04:21:19;;;;;;;1.50;1.40;;;;;;;15.96;69.39;96473.47;6214922;23;20020;-76
2021/08/04 04:23:46;;;;;;;2.60;1.40;;;;;;;15.89;69.48;96477.97;6215013;23;20029;-75
2021/08/04 04:26:14;;;;;;;2.35;1.30;;;;;;;15.82;69.69;96479.88;6214990;23;20337;-76
2021/08/04 04:28:41;;;;;;;2.15;1.52;;;;;;;15.79;69.97;96486.38;6214798;23;20017;-75
2021/08/04 04:31:09;;;;;;;2.70;1.23;;;;;;;15.81;70.08;96480.91;6214872;23;20027;-76
2021/08/04 04:33:37;;;;;;;3.53;1.40;;;;;;;15.81;70.42;96486.19;6214563;23;20075;-75
2021/08/04 04:36:05;;;;;;;1.70;1.27;;;;;;;15.84;70.28;96486.53;6214730;23;20067;-75
2021/08/04 04:38:33;;;;;;;1.95;1.50;;;;;;;15.86;70.01;96483.69;6215245;23;20024;-75
2021/08/04 04:41:00;;;;;;;3.28;2.30;;;;;;;15.86;69.54;96483.69;6214814;23;20361;-75
2021/08/04 04:43:28;;;;;;;3.03;1.90;;;;;;;15.82;69.57;96482.50;6214477;23;20468;-75
2021/08/04 04:45:55;;;;;;;2.17;1.85;;;;;;;15.79;70.39;96483.75;6215078;23;20024;-75
2021/08/04 04:48:23;;;;;;;2.72;1.60;;;;;;;15.77;69.80;96492.88;6215266;23;20025;-76
2021/08/04 04:50:52;;;;;;;2.83;2.40;;;;;;;15.71;70.29;96489.28;6214621;23;20025;-76
2021/08/04 04:53:19;;;;;;;3.47;2.20;;;;;;;15.69;70.05;96487.88;6214454;23;20025;-76
2021/08/04 04:55:46;;;;;;;2.97;2.45;;;;;;;15.71;70.58;96496.34;6214682;23;20032;-76
2021/08/04 04:58:14;;;;;;;1.98;1.50;;;;;;;15.74;70.21;96486.25;6214656;23;20020;-76
2021/08/04 05:00:41;;;;;;;5.53;1.60;;;;;;;15.73;69.92;96489.88;6214231;23;20021;-75
2021/08/04 05:03:09;;;;;;;1.75;1.65;;;;;;;15.73;70.40;96496.97;6213947;23;20356;-76
2021/08/04 05:05:37;;;;;;;2.15;1.58;;;;;;;15.71;70.03;96491.09;6214733;23;20028;-75
2021/08/04 05:08:06;;;;;;;1.67;1.45;;;;;;;15.76;70.72;96499.16;6214667;23;20024;-75
2021/08/04 05:10:33;;;;;;;2.03;1.40;;;;;;;15.78;69.83;96487.38;6214525;23;20021;-75
2021/08/04 05:13:01;;;;;;;1.48;1.35;;;;;;;15.79;69.64;96493.47;6214357;23;20103;-75
2021/08/04 05:15:28;;;;;;;2.20;1.80;;;;;;;15.80;69.57;96500.34;6214152;23;20021;-75
2021/08/04 05:17:56;;;;;;;1.83;1.55;;;;;;;15.79;69.74;96493.47;6214499;23;20074;-75
2021/08/04 05:20:23;;;;;;;3.80;1.80;;;;;;;15.77;69.83;96493.69;6214194;23;20024;-75
2021/08/04 05:22:51;;;;;;;2.10;1.42;;;;;;;15.77;69.80;96488.44;6214116;23;20025;-75
2021/08/04 05:25:20;;;;;;;1.90;1.48;;;;;;;15.77;69.88;96501.56;6214462;23;20024;-76
2021/08/04 05:27:47;;;;;;;2.67;1.85;;;;;;;15.78;69.74;96502.38;6214429;23;20025;-75
2021/08/04 05:30:15;;;;;;;2.20;1.60;;;;;;;15.79;69.89;96504.00;6214414;23;20296;-75
2021/08/04 05:32:43;;;;;;;1.90;1.48;;;;;;;15.83;69.96;96508.59;6219258;23;20024;-75
2021/08/04 05:35:13;;;;;;;3.58;1.92;;;;;;;15.87;69.48;96511.59;6235397;23;20031;-76
2021/08/04 05:37:41;;;;;;;1.95;1.85;;;;;;;15.87;69.60;96511.59;6226957;23;20063;-76
2021/08/04 05:40:09;;;;;;;1.77;1.40;;;;;;;15.94;70.55;96517.63;6222160;23;20020;-75
2021/08/04 05:42:38;;;;;;;2.45;1.55;;;;;;;16.00;69.87;96511.44;6223573;23;20021;-75
2021/08/04 05:45:07;;;;;;;3.53;1.55;;;;;;;16.03;68.93;96511.03;6227892;23;20025;-75
2021/08/04 05:47:35;;;;;;;2.65;1.60;;;;;;;16.04;68.95;96517.91;6226867;23;20036;-76
2021/08/04 05:50:03;;;;;;;2.92;1.63;;;;;;;16.02;68.90;96514.66;6223019;23;20029;-76
2021/08/04 05:52:30;;;;;;;6.28;1.70;;;;;;;16.03;69.75;96515.50;6214993;23;20028;-75
2021/08/04 05:54:58;;;;;;;2.67;1.83;;;;;;;16.06;69.75;96510.59;6214572;23;20024;-75
2021/08/04 05:57:25;;;;;;;4.13;1.90;;;;;;;16.11;69.23;96509.94;6214570;23;20028;-76
2021/08/04 05:59:54;;;;;;;3.83;1.92;;;;;;;16.11;69.20;96503.88;6214423;23;20020;-75
2021/08/04 06:02:22;;;;;;;2.13;1.70;;;;;;;16.13;68.31;96499.19;6234927;23;20028;-80
2021/08/04 06:04:50;;;;;;;3.30;2.00;;;;;;;16.17;68.32;96501.16;6247520;23;20043;-79
2021/08/04 06:07:20;;;;;;;5.15;1.95;;;;;;;16.19;68.42;96503.59;6247098;23;20024;-79
2021/08/04 06:09:49;;;;;;;2.67;1.83;;;;;;;16.21;68.49;96504.16;6246413;23;20024;-79
2021/08/04 06:12:17;;;;;;;3.28;1.98;;;;;;;16.25;69.04;96505.34;6246926;22;20028;-79
2021/08/04 06:14:45;;;;;;;3.40;2.10;;;;;;;16.31;68.52;96501.84;6246561;23;20028;-80
2021/08/04 06:17:15;;;;;;;4.75;2.15;;;;;;;16.36;68.25;96504.59;6246555;23;20032;-79
2021/08/04 06:19:43;;;;;;;2.25;2.00;;;;;;;16.37;68.28;96500.94;6246904;23;20016;-78
2021/08/04 06:22:11;;;;;;;3.25;1.65;;;;;;;16.38;68.36;96499.94;6246432;22;20026;-79
2021/08/04 06:24:40;;;;;;;2.30;1.70;;;;;;;16.42;68.97;96497.63;6246959;23;20464;-77
2021/08/04 06:27:08;;;;;;;3.30;1.80;;;;;;;16.51;68.77;96506.03;6249093;23;20103;-79
2021/08/04 06:29:36;;;;;;;4.82;2.45;;;;;;;16.56;67.69;96508.84;6248928;23;20016;-78
2021/08/04 06:32:05;;;;;;;2.80;2.03;;;;;;;16.59;67.79;96511.81;6250059;22;20080;-78
2021/08/04 06:34:35;;;;;;;2.40;1.63;;;;;;;16.62;67.17;96507.94;6249610;23;20056;-80
2021/08/04 06:37:03;;;;;;;3.40;1.38;;;;;;;16.64;67.19;96503.28;6250671;23;20083;-79
2021/08/04 06:39:49;;;;;;;2.70;1.80;;;;;;;16.65;67.08;96497.75;6252574;23;20036;-79
2021/08/04 06:42:25;;;;;;;1.58;1.42;;;;;;;16.69;67.55;96506.81;6251785;22;20023;-79
2021/08/04 06:44:54;;;;;;;4.15;1.48;;;;;;;16.74;67.36;96503.53;6248069;23;20023;-78
2021/08/04 06:47:23;;;;;;;1.60;1.27;;;;;;;16.79;67.34;96503.66;6247763;23;20016;-77
2021/08/04 06:49:54;;;;;;;1.35;1.23;;;;;;;16.84;67.98;96511.72;6221624;23;20024;-79
2021/08/04 06:52:23;;;;;;;1.98;1.35;;;;;;;16.93;66.72;96511.44;6247942;22;20023;-80
2021/08/04 06:54:52;;;;;;;1.80;1.08;;;;;;;17.00;65.74;96509.50;6247727;23;20468;-79
2021/08/04 06:57:21;;;;;;;3.88;1.27;;;;;;;17.05;65.20;96514.88;6247887;23;20019;-79
2021/08/04 06:59:50;;;;;;;4.15;1.30;;;;;;;17.13;65.56;96525.13;6247884;23;20087;-80
2021/08/04 07:02:19;;;;;;;1.48;1.27;;;;;;;17.17;64.26;96520.22;6247656;22;20091;-79
2021/08/04 07:04:49;;;;;;;1.80;1.30;;;;;;;17.21;64.35;96519.53;6247599;23;20036;-78
2021/08/04 07:07:19;;;;;;;1.70;1.38;;;;;;;17.26;63.81;96513.56;6247278;23;20069;-79
2021/08/04 07:09:49;;;;;;;1.65;1.30;;;;;;;17.32;64.66;96511.84;6247727;23;20022;-79
2021/08/04 07:12:20;;;;;;;3.28;1.60;;;;;;;17.36;63.13;96518.28;6247419;22;20019;-79
2021/08/04 07:14:51;;;;;;;2.30;1.40;;;;;;;17.43;63.28;96516.38;6248299;23;20031;-78
2021/08/04 07:17:20;;;;;;;4.60;1.40;;;;;;;17.51;63.27;96526.56;6247988;23;20020;-79
2021/08/04 07:19:49;;;;;;;1.20;1.10;;;;;;;17.58;62.94;96523.81;6271690;23;20031;-79
2021/08/04 07:22:20;;;;;;;3.63;1.67;;;;;;;17.64;63.35;96526.34;6274619;22;20005;-82
2021/08/04 07:24:48;;;;;;;2.10;1.67;;;;;;;17.70;62.83;96522.00;6273333;22;20016;-79
2021/08/04 07:27:17;;;;;;;1.65;1.15;;;;;;;17.78;62.37;96526.94;6251714;23;20027;-78
2021/08/04 07:29:46;;;;;;;1.85;1.10;;;;;;;17.83;61.73;96521.00;6247784;23;20066;-79
2021/08/04 07:32:15;;;;;;;1.27;1.17;;;;;;;17.86;61.64;96524.00;6248098;22;20387;-79
2021/08/04 07:34:44;;;;;;;2.08;1.38;;;;;;;17.93;61.82;96523.88;6247786;23;20027;-78
2021/08/04 07:37:14;;;;;;;4.82;1.70;;;;;;;17.98;61.33;96531.91;6247559;23;20464;-79
2021/08/04 07:39:44;;;;;;;2.72;1.50;;;;;;;18.04;61.55;96530.19;6247899;23;20023;-79
2021/08/04 07:42:14;;;;;;;1.40;1.20;;;;;;;18.09;61.68;96533.72;6247741;22;20027;-79
2021/08/04 07:44:43;;;;;;;1.92;1.58;;;;;;;18.16;62.41;96532.81;6247587;23;20046;-78
2021/08/04 07:47:12;;;;;;;1.95;1.40;;;;;;;18.22;62.25;96527.41;6247074;23;20099;-79
2021/08/04 07:49:41;;;;;;;2.00;1.30;;;;;;;18.27;61.37;96530.16;6248193;23;20032;-79
2021/08/04 07:52:11;;;;;;;2.40;1.60;;;;;;;18.33;61.28;96531.06;6247704;22;20039;-80
2021/08/04 07:54:40;;;;;;;1.13;1.02;;;;;;;18.37;59.71;96534.84;6247143;23;20456;-78
2021/08/04 07:57:11;;;;;;;1.83;1.25;;;;;;;18.41;59.14;96538.63;6247449;23;20016;-79
2021/08/04 07:59:40;;;;;;;1.30;1.10;;;;;;;18.47;59.06;96534.25;6247905;23;20099;-79
2021/08/04 08:02:09;;;;;;;1.55;1.20;;;;;;;18.51;58.68;96530.09;6247129;22;20394;-79
2021/08/04 08:04:38;;;;;;;1.27;1.17;;;;;;;18.54;58.42;96529.63;6247866;23;20026;-80
2021/08/04 08:07:08;;;;;;;1.40;1.13;;;;;;;18.60;59.16;96536.63;6247324;23;20020;-79
2021/08/04 08:09:37;;;;;;;1.65;1.13;;;;;;;18.65;58.00;96525.34;6247609;23;20091;-79
2021/08/04 08:12:07;;;;;;;1.98;1.52;;;;;;;18.69;57.27;96522.03;6247257;22;20012;-79
2021/08/04 08:14:38;;;;;;;1.65;1.20;;;;;;;18.72;57.76;96526.81;6247566;23;20016;-79
2021/08/04 08:17:07;;;;;;;1.73;1.30;;;;;;;18.82;58.17;96523.59;6247876;23;20012;-79
2021/08/04 08:19:38;;;;;;;1.38;1.27;;;;;;;18.92;57.78;96515.84;6247246;23;20086;-79
2021/08/04 08:22:07;;;;;;;2.15;1.05;;;;;;;19.01;57.29;96512.84;6246625;22;20046;-79
2021/08/04 08:24:37;;;;;;;1.25;1.10;;;;;;;19.07;57.34;96501.31;6247296;23;20452;-78
2021/08/04 08:27:07;;;;;;;6.03;1.58;;;;;;;19.14;56.37;96517.84;6247247;23;20016;-79
2021/08/04 08:29:37;;;;;;;1.15;1.05;;;;;;;19.15;55.73;96508.84;6247700;23;20535;-79
2021/08/04 08:32:07;;;;;;;1.90;1.33;;;;;;;19.16;55.49;96510.47;6247148;22;20023;-79
2021/08/04 08:34:36;;;;;;;2.05;1.42;;;;;;;19.19;55.93;96504.69;6247209;23;20020;-79
2021/08/04 08:37:06;;;;;;;1.33;1.20;;;;;;;19.21;55.57;96507.91;6246797;23;20016;-79
2021/08/04 08:39:34;;;;;;;2.55;1.27;;;;;;;19.22;56.58;96509.50;6246915;23;20020;-79
2021/08/04 08:42:04;;;;;;;2.95;1.10;;;;;;;19.26;55.73;96515.94;6247195;22;20043;-79
2021/08/04 08:44:33;;;;;;;2.33;1.52;;;;;;;19.30;55.81;96514.38;6247372;23;20028;-79
2021/08/04 08:47:08;;;;;;;4.47;1.45;;;;;;;19.37;55.87;96513.44;6246678;23;20391;-79
2021/08/04 08:49:39;;;;;;;1.67;1.25;;;;;;;19.39;54.54;96504.22;6246890;23;20020;-78
2021/08/04 08:52:09;;;;;;;1.27;1.17;;;;;;;19.40;54.38;96500.56;6246693;22;20016;-79
2021/08/04 08:54:38;;;;;;;1.60;1.02;;;;;;;19.43;55.08;96501.91;6246941;23;20102;-79
2021/08/04 08:57:07;;;;;;;1.63;1.23;;;;;;;19.48;53.72;96504.63;6247484;23;20016;-79
2021/08/04 08:59:36;;;;;;;1.55;1.27;;;;;;;19.58;54.92;96502.16;6247077;23;20016;-80
2021/08/04 09:02:07;;;;;;;1.52;0.85;;;;;;;19.64;54.81;96501.19;6246542;22;20050;-80
2021/08/04 09:04:36;;;;;;;4.10;1.42;;;;;;;19.68;55.14;96510.25;6265994;23;20337;-79
2021/08/04 09:07:06;;;;;;;1.25;1.08;;;;;;;19.67;54.03;96505.97;6267980;23;20035;-80
2021/08/04 09:09:36;;;;;;;4.05;1.30;;;;;;;19.67;54.05;96510.47;6266072;23;20040;-80
2021/08/04 09:12:16;;;;;;;2.67;1.52;;;;;;;19.63;52.73;96514.66;6247980;22;20427;-80
2021/08/04 09:14:45;;;;;;;1.98;1.52;;;;;;;19.60;52.95;96504.56;6247803;23;20047;-79
2021/08/04 09:17:18;;;;;;;1.20;1.00;;;;;;;19.54;52.78;96503.66;6247494;23;20460;-79
2021/08/04 09:19:50;;;;;;;3.05;1.50;;;;;;;19.48;53.16;96491.41;6247626;23;20039;-79
2021/08/04 09:22:23;;;;;;;1.15;1.05;;;;;;;19.46;53.63;96496.13;6246616;22;20482;-80
2021/08/04 09:25:13;;;;;;;0.90;0.90;;;;;;;19.46;54.64;96498.78;6246921;23;20017;-79
2021/08/04 09:27:50;;;;;;;2.60;1.83;;;;;;;19.48;55.14;96501.97;6246602;23;20536;-79
2021/08/04 09:30:25;;;;;;;1.95;1.40;;;;;;;19.48;53.87;96494.88;6246344;22;20023;-80
2021/08/04 09:33:12;;;;;;;3.17;1.77;;;;;;;19.46;53.59;96488.19;6246738;23;20023;-80
2021/08/04 09:35:47;;;;;;;1.70;1.60;;;;;;;19.45;53.56;96476.03;6246417;23;20524;-80
2021/08/04 09:38:18;;;;;;;3.97;1.35;;;;;;;19.42;54.09;96487.88;6246702;23;20019;-79
2021/08/04 09:40:51;;;;;;;3.53;1.60;;;;;;;19.39;54.32;96491.00;6246360;22;20036;-79
2021/08/04 09:43:27;;;;;;;4.07;1.65;;;;;;;19.35;54.27;96488.03;6245951;23;20016;-81
2021/08/04 09:45:56;;;;;;;2.67;1.42;;;;;;;19.33;54.82;96478.75;6246519;23;20043;-79
2021/08/04 09:48:28;;;;;;;7.88;1.73;;;;;;;19.30;54.41;96477.38;6246396;23;20027;-80
2021/08/04 09:50:59;;;;;;;1.95;1.60;;;;;;;19.28;54.59;96482.09;6246134;22;20067;-79
2021/08/04 09:53:30;;;;;;;3.95;1.90;;;;;;;19.24;54.91;96475.72;6246286;23;20024;-80
2021/08/04 09:56:11;;;;;;;1.58;1.00;;;;;;;19.23;54.90;96466.16;6246755;23;20020;-80
2021/08/04 09:58:43;;;;;;;2.50;1.65;;;;;;;19.23;55.06;96466.16;6246913;23;20012;-79
2021/08/04 10:01:14;;;;;;;1.40;1.30;;;;;;;19.19;54.85;96472.16;6248329;22;20016;-80
2021/08/04 10:04:03;;;;;;;2.20;1.50;;;;;;;19.13;55.05;96474.72;6248675;23;20078;-79
2021/08/04 10:06:35;;;;;;;2.28;1.38;;;;;;;19.08;55.28;96471.19;6248421;23;20086;-79
2021/08/04 10:09:06;;;;;;;3.55;1.15;;;;;;;19.05;55.57;96471.69;6249368;23;20103;-81
2021/08/04 10:11:36;;;;;;;4.32;1.27;;;;;;;19.05;56.24;96463.75;6248352;22;20020;-79
2021/08/04 10:14:05;;;;;;;5.00;1.60;;;;;;;19.06;55.51;96467.97;6249363;23;20016;-80
2021/08/04 10:16:36;;;;;;;1.85;1.30;;;;;;;19.06;56.29;96470.63;6249109;23;20352;-81
2021/08/04 10:19:08;;;;;;;3.43;1.33;;;;;;;19.05;55.84;96466.38;6249058;23;20395;-79
2021/08/04 10:21:41;;;;;;;1.40;1.30;;;;;;;19.06;56.12;96468.78;6249059;22;20107;-79
2021/08/04 10:24:14;;;;;;;1.15;1.05;;;;;;;19.03;55.33;96466.63;6248673;23;20039;-79
2021/08/04 10:26:43;;;;;;;;;;;;;;;19.03;56.45;96469.25;6249018;23;20012;-79
2021/08/04 10:29:13;;;;;;;2.55;1.40;;;;;;;19.01;56.19;96465.25;6248814;23;19916;-80
2021/08/04 10:31:43;;;;;;;4.22;1.40;;;;;;;18.99;56.82;96462.06;6249174;22;20055;-78
2021/08/04 10:34:26;;;;;;;5.10;1.42;;;;;;;18.97;57.12;96469.41;6249685;23;20078;-79
2021/08/04 10:36:59;;;;;;;;;;;;;;;19.00;57.34;96469.75;6253009;23;20095;-80
2021/08/04 10:39:29;;;;;;;6.72;2.20;;;;;;;18.99;56.85;96467.34;6248475;23;19915;-79
2021/08/04 10:42:05;;;;;;;5.18;1.80;;;;;;;18.99;57.13;96469.97;6248267;22;20040;-79
2021/08/04 10:44:34;;;;;;;5.95;1.85;;;;;;;19.01;57.30;96470.53;6248331;23;20098;-80
2021/08/04 10:47:05;;;;;;;3.80;1.80;;;;;;;19.03;57.28;96463.97;6250860;23;20035;-79
2021/08/04 10:49:37;;;;;;;3.90;1.90;;;;;;;19.09;57.72;96462.22;6258293;23;20020;-79
2021/08/04 10:52:07;;;;;;;2.27;1.50;;;;;;;19.14;57.37;96459.66;6262300;22;20016;-79
2021/08/04 10:54:36;;;;;;;8.50;2.17;;;;;;;19.20;56.94;96444.66;6249871;23;20245;-79
2021/08/04 10:57:11;;;;;;;6.63;1.75;;;;;;;19.23;57.61;96447.66;6248287;23;20070;-79
2021/08/04 10:59:41;;;;;;;2.10;1.90;;;;;;;19.29;57.54;96441.41;6248650;23;20020;-79
2021/08/04 11:02:30;;;;;;;4.65;2.65;;;;;;;19.39;57.42;96435.44;6248456;22;20459;-79
2021/08/04 11:05:02;;;;;;;3.38;2.42;;;;;;;19.48;57.28;96426.09;6248118;23;20047;-78
2021/08/04 11:07:30;;;;;;;4.53;1.77;;;;;;;19.61;56.93;96421.47;6248149;23;20050;-80
2021/08/04 11:10:02;;;;;;;3.95;1.55;;;;;;;19.69;55.90;96423.72;6249280;23;20082;-79
2021/08/04 11:12:49;;;;;;;4.00;2.08;;;;;;;19.80;56.20;96422.03;6248426;22;20023;-79
2021/08/04 11:15:33;;;;;;;2.22;1.70;;;;;;;19.92;56.17;96418.25;6249640;23;20023;-79
2021/08/04 11:18:08;;;;;;;4.18;1.95;;;;;;;20.03;54.05;96413.06;6247823;23;20020;-79
2021/08/04 11:21:13;;;;;;;2.15;1.92;;;;;;;20.13;54.05;96413.97;6248208;22;20031;-79
2021/08/04 11:23:46;;;;;;;2.38;2.13;;;;;;;20.20;53.56;96413.00;6274259;22;20008;-81
2021/08/04 11:26:30;;;;;;;2.70;1.65;;;;;;;20.26;53.04;96414.66;6274897;22;20004;-81
2021/08/04 11:29:00;;;;;;;2.25;1.60;;;;;;;20.27;52.58;96414.41;6260890;23;20020;-79
2021/08/04 11:31:29;;;;;;;2.08;1.52;;;;;;;20.27;52.59;96418.91;6251874;22;20016;-79
2021/08/04 11:34:02;;;;;;;1.83;1.30;;;;;;;20.27;51.49;96413.59;6250679;23;20021;-79
2021/08/04 11:36:33;;;;;;;1.90;1.50;;;;;;;20.26;51.71;96407.50;6249100;23;20020;-79
2021/08/04 11:39:08;;;;;;;3.45;1.40;;;;;;;20.24;52.27;96408.81;6248368;23;20046;-80
2021/08/04 11:41:45;;;;;;;1.60;1.50;;;;;;;20.22;51.84;96405.59;6248297;22;20020;-79
2021/08/04 11:44:23;;;;;;;3.70;1.50;;;;;;;20.20;53.34;96397.91;6247685;23;20066;-79
2021/08/04 11:47:00;;;;;;;1.75;1.50;;;;;;;20.24;53.63;96403.50;6247334;23;20016;-79
2021/08/04 11:49:31;;;;;;;2.78;1.63;;;;;;;20.21;52.41;96404.00;6247301;23;20456;-79